Relevés horaires Schaffen (Belgique)


Relevés horaires à Schaffen - Lundi 28 Août 2017
Heure UTC1 Température [°C] Vent [km/h] Hum. [%] Pres.4 [hPa] Visi. [Km] Nébu. [octa] Préc.5 [mm] Cond.
2m. Res. Ros. Dir.2 Vit. Moy. Raf.3
23:00 19.1 19.1 15.2 NNO 1.9 -- 1.9 78 1016.7(-0.4/3h) 12 -- -- --
22:00 20.0 20.0 15.1 NNO 1.9 -- 3.7 73 1017(0.0/3h) 12 -- -- --
21:00 21.3 21.3 15.1 NNO 1.9 -- 3.7 68 1017.2(0.3/3h) 17 -- -- --
20:00 22.6 22.6 14.5 NNO 1.9 -- 1.9 60 1017(0.0/3h) 20 -- -- --
19:00 23.6 23.6 14.7 NNO 1.9 -- 1.9 57 1016.8(-0.2/3h) 2.6 -- -- --
18:00 25.3 25.3 14.0 NNO 1.9 -- 9.3 50 1016.7(-0.5/3h) 20 -- -- --
17:00 26.5 26.5 13.6 NNO 1.9 -- 7.4 45 1016.8(-0.7/3h) 20 -- -- --
16:00 26.5 26.5 13.4 NNO 5.6 -- 9.3 44 1017.1(-1.0/3h) 20 5/8 -- --
15:00 27.8 27.8 13.1 ONO 3.7 -- 9.3 40 1017.2(-0.8/3h) 20 4/8 -- --
14:00 27.6 27.6 14.4 ONO 3.7 -- 7.4 44 1017.7(-0.9/3h) 20 4/8 -- --
13:00 27.1 27.1 15.0 NNO 1.9 -- 9.3 48 1018.1(-0.9/3h) 20 3/8 -- --
12:00 26.2 26.2 15.5 NNO 3.7 -- 7.4 52 1018.2(-0.8/3h) 20 2/8 -- --
11:00 25.7 25.7 16.3 NNO 1.9 -- 5.6 56 1018.6(-0.3/3h) 20 5/8 -- --
10:00 23.9 23.9 15.9 NNO 1.9 -- 5.6 61 1019.1(0.3/3h) 20 5/8 -- --
09:00 22.4 22.4 15.8 NNO 1.9 -- 3.7 66 1019.2(0.5/3h) 20 5/8 -- --
08:00 20.6 20.6 14.9 NNO 1.9 -- 1.9 70 1019.1(0.6/3h) 20 2/8 -- --
07:00 17.6 17.6 13.5 NNO 1.9 -- 1.9 77 1018.8(0.4/3h) 20 1/8 -- --
06:00 15.3 15.3 12.9 NNO 1.9 -- 3.7 86 1018.7(0.0/3h) 20 0/8 -- --
05:00 14.3 14.3 12.3 NNO 1.9 -- 3.7 88 1018.5(-0.2/3h) 20 0/8 -- --
04:00 15.1 15.1 12.1 NNO 1.9 -- 3.7 82 1018.5(-0.2/3h) 20 0/8 -- --
03:00 16.5 16.5 11.6 NNO 1.9 -- 3.7 73 1018.6(-0.3/3h) 20 -- -- --
02:00 17.3 17.3 11.5 NNO 1.9 -- 3.7 69 1018.7(-0.6/3h) 20 -- -- --
01:00 17.7 17.7 11.5 NNO 1.9 -- 3.7 67 1018.7(-0.5/3h) 20 -- -- --
00:00 17.7 17.7 11.7 NNO 1.9 -- 5.6 68 1019(0.0/3h) 20 -- -- --

1 Coordinated Universal Time. Actuellement il est 08:00 locale et 07:00 UTC.

2 Le vent souffle depuis la direction indiquée vers la direction oposée.

3 Les rafales max. sont disponible 40 min après l'heure du relevé.

4 Pour les stations d'altitude (plus de 600m) le géopotentiel du niveau le plus proche de la pression obligatoire est indiqué.

5 Les stations disposant d'un diffuseur peuvent indiquer "trace". Cela signifie que des précipitations ont touchés le sol mais que la quantité est inférieure à 0.1 mm.

Récapitulatif de la journée
Température [°C] Vent [km/h] Ensoleillement4 [h] Precipitations totale5 [mm] Pression [Hpa]
Min1 Max.2 Moy.3 Max. Min Max.
14.2 28.2 0 9.3 0 h 0 min 0 1016.7 1019.2

1 Température minimale relevée entre 18:00 UTC la veille et 18:00 UTC le jour donné.

2 Température maximale relevée entre 06:00 UTC le jour donné et 06:00 UTC le lendemain.

3 Vent moyen de la journée basé sur les relevés horaires.

4 Ensoleillement en heures relevé entre 06:00 UTC la veille et 06:00 UTC le jour donné.

5 Précipitations totales tombées entre 06:00 UTC la jour donné et 06:00 UTC le lendemain.

Graphiques horaires